createdAt,value
2019-04-01T00:01:31.119Z,7.42
2019-04-01T00:06:37.665Z,7.05
2019-04-01T00:11:43.995Z,8.30
2019-04-01T00:16:50.262Z,8.10
2019-04-01T00:21:56.443Z,8.68
2019-04-01T00:27:02.619Z,7.50
2019-04-01T00:32:08.872Z,7.08
2019-04-01T00:37:14.849Z,7.60
2019-04-01T00:42:42.657Z,5.80
2019-04-01T00:47:48.809Z,4.62
2019-04-01T00:52:54.966Z,5.60
2019-04-01T00:58:00.964Z,5.42
2019-04-01T01:03:07.175Z,5.60
2019-04-01T01:08:13.292Z,6.08
2019-04-01T01:13:19.507Z,4.87
2019-04-01T01:18:25.778Z,4.92
2019-04-01T01:23:31.975Z,4.33
2019-04-01T01:28:37.923Z,5.17
2019-04-01T01:33:43.903Z,5.97
2019-04-01T01:38:50.374Z,5.78
2019-04-01T01:43:56.461Z,4.58
2019-04-01T01:49:02.435Z,4.72
2019-04-01T01:54:08.409Z,4.47
2019-04-01T01:59:14.586Z,4.60
2019-04-01T02:04:20.724Z,4.53
2019-04-01T02:09:26.737Z,3.92
2019-04-01T02:14:32.922Z,4.45
2019-04-01T02:19:38.894Z,5.97
2019-04-01T02:24:44.863Z,3.83
2019-04-01T02:29:50.925Z,3.92
2019-04-01T02:34:57.118Z,3.75
2019-04-01T02:40:03.164Z,5.97
2019-04-01T02:45:09.573Z,4.45
2019-04-01T02:50:16.143Z,6.05
2019-04-01T02:55:23.051Z,5.62
2019-04-01T03:00:29.129Z,6.20
2019-04-01T03:05:35.208Z,4.97
2019-04-01T03:10:41.589Z,5.30
2019-04-01T03:15:47.668Z,5.12
2019-04-01T03:20:54.134Z,4.83
2019-04-01T03:26:00.316Z,5.28
2019-04-01T03:31:06.405Z,4.50
2019-04-01T03:36:12.716Z,4.55
2019-04-01T03:41:19.066Z,7.28
2019-04-01T03:46:25.042Z,7.90
2019-04-01T03:51:31.115Z,6.83
2019-04-01T03:56:37.124Z,6.97
2019-04-01T04:01:43.726Z,6.17
2019-04-01T04:06:50.059Z,6.95
2019-04-01T04:11:56.374Z,7.00
2019-04-01T04:17:02.660Z,5.67
2019-04-01T04:22:08.808Z,6.40
2019-04-01T04:27:15.049Z,6.05
2019-04-01T04:32:21.193Z,6.55
2019-04-01T04:37:27.754Z,5.97
2019-04-01T04:42:33.644Z,5.60
2019-04-01T04:47:39.894Z,5.80
2019-04-01T04:52:46.075Z,6.00
2019-04-01T04:57:52.373Z,5.75
2019-04-01T05:02:58.427Z,4.78
2019-04-01T05:08:04.919Z,4.75
2019-04-01T05:13:10.890Z,5.20
2019-04-01T05:18:17.358Z,4.67
2019-04-01T05:23:25.178Z,5.03
2019-04-01T05:28:32.071Z,4.92
2019-04-01T05:33:54.599Z,4.87
2019-04-01T05:38:48.334Z,5.33
2019-04-01T05:43:55.618Z,5.20
2019-04-01T05:49:02.162Z,5.37
2019-04-01T05:54:08.912Z,6.05
2019-04-01T05:59:15.091Z,5.80
2019-04-01T06:04:21.575Z,5.95
2019-04-01T06:09:27.899Z,6.60
2019-04-01T06:14:34.638Z,6.85
2019-04-01T06:19:40.674Z,9.03
2019-04-01T06:24:47.016Z,11.70
2019-04-01T06:29:53.139Z,11.33
2019-04-01T06:34:59.760Z,10.65
2019-04-01T06:40:07.107Z,11.33
2019-04-01T06:45:13.589Z,10.08
2019-04-01T06:50:19.846Z,9.58
2019-04-01T06:55:26.803Z,9.13
2019-04-01T07:00:33.315Z,10.40
2019-04-01T07:05:39.555Z,10.03
2019-04-01T07:10:45.922Z,8.80
2019-04-01T07:15:52.371Z,9.50
2019-04-01T07:20:58.590Z,8.50
2019-04-01T07:26:05.144Z,8.03
2019-04-01T07:31:11.729Z,8.93
2019-04-01T07:36:18.052Z,8.70
2019-04-01T07:41:24.282Z,8.78
2019-04-01T07:46:30.483Z,8.13
2019-04-01T07:51:38.607Z,8.40
2019-04-01T07:56:44.907Z,7.53
2019-04-01T08:01:52.853Z,7.60
2019-04-01T08:06:59.005Z,7.40
2019-04-01T08:12:05.449Z,6.53
2019-04-01T08:17:11.862Z,6.28
2019-04-01T08:22:17.843Z,5.78
2019-04-01T08:27:24.089Z,4.80
2019-04-01T08:32:30.277Z,5.17
2019-04-01T08:37:39.928Z,5.05
2019-04-01T08:42:44.367Z,5.10
2019-04-01T08:47:50.937Z,5.20
2019-04-01T08:52:56.946Z,5.33
2019-04-01T08:58:03.510Z,4.80
2019-04-01T09:03:09.684Z,5.20
2019-04-01T09:08:16.000Z,5.62
2019-04-01T09:13:22.250Z,4.55
2019-04-01T09:18:28.553Z,4.92
2019-04-01T09:23:34.708Z,4.53
2019-04-01T09:28:41.101Z,5.00
2019-04-01T09:33:47.407Z,5.05
2019-04-01T09:38:53.447Z,4.78
2019-04-01T09:43:59.429Z,4.85
2019-04-01T09:49:06.558Z,5.33
2019-04-01T09:54:12.795Z,4.60
2019-04-01T09:59:18.997Z,4.72
2019-04-01T10:04:25.154Z,5.35
2019-04-01T10:09:31.153Z,5.40
2019-04-01T10:14:37.420Z,5.17
2019-04-01T10:19:43.282Z,5.25
2019-04-01T10:24:49.359Z,13.80
2019-04-01T10:29:55.478Z,5.80
2019-04-01T10:35:01.773Z,5.45
2019-04-01T10:40:08.744Z,6.17
2019-04-01T10:45:15.485Z,4.80
2019-04-01T10:50:21.638Z,6.15
2019-04-01T10:55:27.803Z,6.12
2019-04-01T11:00:34.083Z,5.55
2019-04-01T11:05:40.431Z,5.28
2019-04-01T11:10:46.774Z,5.58
2019-04-01T11:15:52.774Z,5.78
2019-04-01T11:20:58.759Z,6.10
2019-04-01T11:26:05.025Z,6.20
2019-04-01T11:31:11.122Z,5.90
2019-04-01T11:36:17.305Z,6.15
2019-04-01T11:41:23.477Z,6.00
2019-04-01T11:46:29.757Z,6.00
2019-04-01T11:51:39.829Z,6.10
2019-04-01T11:56:43.635Z,5.85
2019-04-01T12:01:49.926Z,7.20
2019-04-01T12:06:55.923Z,6.97
2019-04-01T12:12:03.243Z,6.35
2019-04-01T12:17:09.614Z,6.33
2019-04-01T12:22:15.836Z,6.30
2019-04-01T12:27:22.303Z,5.97
2019-04-01T12:32:28.515Z,6.08
2019-04-01T12:37:34.693Z,5.60
2019-04-01T12:42:40.774Z,5.33
2019-04-01T12:47:46.741Z,4.90
2019-04-01T12:52:52.846Z,4.83
2019-04-01T12:57:59.255Z,4.67
2019-04-01T13:03:05.519Z,4.37
2019-04-01T13:08:11.556Z,4.15
2019-04-01T13:13:17.534Z,4.20
2019-04-01T13:18:23.511Z,4.45
2019-04-01T13:23:29.989Z,4.15
2019-04-01T13:28:36.269Z,4.33
2019-04-01T13:33:42.348Z,4.45
2019-04-01T13:38:48.320Z,4.10
2019-04-01T13:43:54.293Z,3.75
2019-04-01T13:49:04.178Z,4.50
2019-04-01T13:54:11.205Z,4.53
2019-04-01T13:59:17.596Z,5.17
2019-04-01T14:04:23.816Z,4.08
2019-04-01T14:09:30.915Z,4.33
2019-04-01T14:14:37.296Z,4.45
2019-04-01T14:19:43.479Z,4.30
2019-04-01T14:24:49.556Z,4.03
2019-04-01T14:29:55.945Z,3.92
2019-04-01T14:35:02.218Z,3.87
2019-04-01T14:40:09.174Z,4.42
2019-04-01T14:45:15.907Z,4.33
2019-04-01T14:50:22.348Z,4.28
2019-04-01T14:55:28.474Z,4.10
2019-04-01T15:00:34.998Z,4.47
2019-04-01T15:05:41.126Z,4.10
2019-04-01T15:10:47.304Z,4.15
2019-04-01T15:15:53.492Z,4.60
2019-04-01T15:20:59.618Z,4.83
2019-04-01T15:26:05.963Z,4.33
2019-04-01T15:31:12.020Z,4.35
2019-04-01T15:36:18.122Z,4.10
2019-04-01T15:41:26.690Z,4.53
2019-04-01T15:46:32.955Z,4.22
2019-04-01T15:51:39.228Z,3.90
2019-04-01T15:56:45.293Z,3.90
2019-04-01T16:01:51.838Z,3.98
2019-04-01T16:06:57.878Z,3.67
2019-04-01T16:12:04.194Z,3.87
2019-04-01T16:17:10.676Z,4.47
2019-04-01T16:22:16.959Z,3.62
2019-04-01T16:27:22.961Z,3.98
2019-04-01T16:32:29.399Z,3.90
2019-04-01T16:37:36.025Z,3.70
2019-04-01T16:42:42.129Z,3.77
2019-04-01T16:47:48.745Z,4.00
2019-04-01T16:52:55.070Z,3.77
2019-04-01T16:58:01.263Z,4.17
2019-04-01T17:03:07.787Z,3.55
2019-04-01T17:08:14.043Z,3.70
2019-04-01T17:13:20.232Z,4.08
2019-04-01T17:18:26.370Z,3.80
2019-04-01T17:23:32.547Z,4.10
2019-04-01T17:28:38.841Z,4.00
2019-04-01T17:33:45.108Z,3.92
2019-04-01T17:38:51.330Z,3.90
2019-04-01T17:43:57.691Z,4.60
2019-04-01T17:49:03.948Z,4.03
2019-04-01T17:54:10.026Z,4.00
2019-04-01T17:59:16.052Z,4.30
2019-04-01T18:04:23.002Z,4.30
2019-04-01T18:09:30.997Z,4.47
2019-04-01T18:14:37.295Z,4.28
2019-04-01T18:19:43.292Z,4.53
2019-04-01T18:24:49.406Z,4.58
2019-04-01T18:29:55.744Z,5.15
2019-04-01T18:35:04.055Z,12.70
2019-04-01T18:40:10.421Z,7.97
2019-04-01T18:45:16.849Z,11.78
2019-04-01T18:50:23.364Z,10.88
2019-04-01T18:55:31.156Z,9.05
2019-04-01T19:00:37.779Z,7.55
2019-04-01T19:05:46.869Z,6.05
2019-04-01T19:11:02.223Z,5.10
2019-04-01T19:16:03.229Z,5.30
2019-04-01T19:21:09.096Z,5.17
2019-04-01T19:26:15.157Z,5.40
2019-04-01T19:31:21.177Z,6.25
2019-04-01T19:36:29.093Z,6.35
2019-04-01T19:41:36.274Z,6.17
2019-04-01T19:46:42.559Z,6.40
2019-04-01T19:51:48.850Z,6.12
2019-04-01T19:56:54.921Z,8.23
2019-04-01T20:02:01.414Z,21.65
2019-04-01T20:07:07.621Z,21.35
2019-04-01T20:12:13.965Z,17.57
2019-04-01T20:17:20.056Z,13.50
2019-04-01T20:22:27.432Z,12.50
2019-04-01T20:27:33.596Z,10.85
2019-04-01T20:32:40.207Z,11.18
2019-04-01T20:37:46.609Z,13.00
2019-04-01T20:42:52.605Z,15.03
2019-04-01T20:47:58.836Z,14.98
2019-04-01T20:53:05.141Z,10.63
2019-04-01T20:58:11.427Z,10.25
2019-04-01T21:03:17.490Z,11.15
2019-04-01T21:08:23.773Z,12.13
2019-04-01T21:13:30.062Z,11.95
2019-04-01T21:18:36.436Z,11.68
2019-04-01T21:23:42.841Z,9.98
2019-04-01T21:28:49.013Z,8.63
2019-04-01T21:33:55.402Z,9.00
2019-04-01T21:39:01.668Z,8.78
2019-04-01T21:44:07.768Z,9.78
2019-04-01T21:49:14.013Z,9.85
2019-04-01T21:54:20.818Z,10.28
2019-04-01T21:59:26.927Z,10.30
2019-04-01T22:04:33.145Z,9.43
2019-04-01T22:09:39.326Z,9.83
2019-04-01T22:14:45.524Z,10.03
2019-04-01T22:19:51.791Z,11.18
2019-04-01T22:24:57.976Z,10.78
2019-04-01T22:30:05.091Z,10.13
2019-04-01T22:35:11.382Z,13.68
2019-04-01T22:40:17.768Z,13.48
2019-04-01T22:45:24.208Z,12.95
2019-04-01T22:50:30.520Z,11.93
2019-04-01T22:55:36.598Z,11.03
2019-04-01T23:00:42.888Z,10.65
2019-04-01T23:05:49.229Z,11.38
2019-04-01T23:10:56.552Z,11.10
2019-04-01T23:16:03.274Z,9.73
2019-04-01T23:21:10.017Z,9.83
2019-04-01T23:26:16.097Z,10.35
2019-04-01T23:31:22.368Z,10.30
2019-04-01T23:36:28.660Z,9.50
2019-04-01T23:41:35.070Z,9.43
2019-04-01T23:46:41.341Z,10.28
2019-04-01T23:51:47.517Z,9.40
2019-04-01T23:56:54.020Z,9.30
